sensor_id;sensor_type;location;lat;lon;timestamp;temperature;humidity
70269;DHT22;58514;48.398;-4.274;2022-08-02T00:01:58;20.50;81.60
70269;DHT22;58514;48.398;-4.274;2022-08-02T00:04:24;20.50;82.50
70269;DHT22;58514;48.398;-4.274;2022-08-02T00:06:50;20.40;81.50
70269;DHT22;58514;48.398;-4.274;2022-08-02T00:09:15;20.40;83.00
70269;DHT22;58514;48.398;-4.274;2022-08-02T00:11:41;20.40;82.00
70269;DHT22;58514;48.398;-4.274;2022-08-02T00:14:06;20.40;83.50
70269;DHT22;58514;48.398;-4.274;2022-08-02T00:16:32;20.30;82.90
70269;DHT22;58514;48.398;-4.274;2022-08-02T00:18:57;20.30;82.90
70269;DHT22;58514;48.398;-4.274;2022-08-02T00:21:23;20.30;83.10
70269;DHT22;58514;48.398;-4.274;2022-08-02T00:23:48;20.20;84.70
70269;DHT22;58514;48.398;-4.274;2022-08-02T00:26:14;20.20;83.30
70269;DHT22;58514;48.398;-4.274;2022-08-02T00:28:39;20.20;84.10
70269;DHT22;58514;48.398;-4.274;2022-08-02T00:31:05;20.30;84.20
70269;DHT22;58514;48.398;-4.274;2022-08-02T00:33:31;20.30;84.00
70269;DHT22;58514;48.398;-4.274;2022-08-02T00:35:56;20.20;85.10
70269;DHT22;58514;48.398;-4.274;2022-08-02T00:38:22;20.20;85.70
70269;DHT22;58514;48.398;-4.274;2022-08-02T00:40:48;20.20;85.10
70269;DHT22;58514;48.398;-4.274;2022-08-02T00:43:13;20.20;85.80
70269;DHT22;58514;48.398;-4.274;2022-08-02T00:45:40;20.10;86.20
70269;DHT22;58514;48.398;-4.274;2022-08-02T00:48:06;20.10;86.20
70269;DHT22;58514;48.398;-4.274;2022-08-02T00:50:32;20.10;87.30
70269;DHT22;58514;48.398;-4.274;2022-08-02T00:52:58;20.00;86.00
70269;DHT22;58514;48.398;-4.274;2022-08-02T00:55:24;20.00;86.20
70269;DHT22;58514;48.398;-4.274;2022-08-02T00:57:50;20.00;87.10
70269;DHT22;58514;48.398;-4.274;2022-08-02T01:00:16;20.00;87.60
70269;DHT22;58514;48.398;-4.274;2022-08-02T01:02:41;20.00;88.80
70269;DHT22;58514;48.398;-4.274;2022-08-02T01:05:07;20.00;88.00
70269;DHT22;58514;48.398;-4.274;2022-08-02T01:07:33;20.00;87.20
70269;DHT22;58514;48.398;-4.274;2022-08-02T01:09:58;20.00;86.90
70269;DHT22;58514;48.398;-4.274;2022-08-02T01:12:26;20.00;87.80
70269;DHT22;58514;48.398;-4.274;2022-08-02T01:14:53;20.00;88.60
70269;DHT22;58514;48.398;-4.274;2022-08-02T01:17:31;20.00;88.20
70269;DHT22;58514;48.398;-4.274;2022-08-02T01:30:02;20.10;88.30
70269;DHT22;58514;48.398;-4.274;2022-08-02T01:32:30;20.00;89.10
70269;DHT22;58514;48.398;-4.274;2022-08-02T01:35:01;20.00;88.20
70269;DHT22;58514;48.398;-4.274;2022-08-02T01:40:12;20.00;88.60
70269;DHT22;58514;48.398;-4.274;2022-08-02T01:42:40;20.00;89.20
70269;DHT22;58514;48.398;-4.274;2022-08-02T01:45:06;20.00;89.10
70269;DHT22;58514;48.398;-4.274;2022-08-02T01:47:33;20.00;89.10
70269;DHT22;58514;48.398;-4.274;2022-08-02T01:50:00;20.00;89.00
70269;DHT22;58514;48.398;-4.274;2022-08-02T01:52:34;19.90;89.50
70269;DHT22;58514;48.398;-4.274;2022-08-02T01:57:34;19.90;89.30
70269;DHT22;58514;48.398;-4.274;2022-08-02T02:00:01;19.90;90.20
70269;DHT22;58514;48.398;-4.274;2022-08-02T02:02:27;19.80;89.90
70269;DHT22;58514;48.398;-4.274;2022-08-02T02:04:54;19.80;90.30
70269;DHT22;58514;48.398;-4.274;2022-08-02T02:07:20;19.80;90.30
70269;DHT22;58514;48.398;-4.274;2022-08-02T02:09:46;19.80;91.00
70269;DHT22;58514;48.398;-4.274;2022-08-02T02:12:13;19.80;90.80
70269;DHT22;58514;48.398;-4.274;2022-08-02T02:14:40;19.80;90.30
70269;DHT22;58514;48.398;-4.274;2022-08-02T02:17:06;19.80;90.50
70269;DHT22;58514;48.398;-4.274;2022-08-02T02:19:32;19.80;90.40
70269;DHT22;58514;48.398;-4.274;2022-08-02T02:22:00;19.80;90.50
70269;DHT22;58514;48.398;-4.274;2022-08-02T02:24:25;19.80;91.00
70269;DHT22;58514;48.398;-4.274;2022-08-02T02:26:51;19.80;90.90
70269;DHT22;58514;48.398;-4.274;2022-08-02T02:29:17;19.70;90.60
70269;DHT22;58514;48.398;-4.274;2022-08-02T02:31:45;19.70;90.40
70269;DHT22;58514;48.398;-4.274;2022-08-02T02:34:13;19.70;90.70
70269;DHT22;58514;48.398;-4.274;2022-08-02T02:36:40;19.70;90.60
70269;DHT22;58514;48.398;-4.274;2022-08-02T02:39:06;19.70;91.30
70269;DHT22;58514;48.398;-4.274;2022-08-02T02:41:33;19.70;91.50
70269;DHT22;58514;48.398;-4.274;2022-08-02T02:44:01;19.70;91.10
70269;DHT22;58514;48.398;-4.274;2022-08-02T02:46:30;19.70;91.60
70269;DHT22;58514;48.398;-4.274;2022-08-02T02:48:56;19.60;91.10
70269;DHT22;58514;48.398;-4.274;2022-08-02T02:51:23;19.60;91.00
70269;DHT22;58514;48.398;-4.274;2022-08-02T02:53:49;19.70;91.20
70269;DHT22;58514;48.398;-4.274;2022-08-02T02:56:16;19.60;91.60
70269;DHT22;58514;48.398;-4.274;2022-08-02T02:58:42;19.60;91.60
70269;DHT22;58514;48.398;-4.274;2022-08-02T03:01:08;19.60;91.60
70269;DHT22;58514;48.398;-4.274;2022-08-02T03:04:02;19.70;91.80
70269;DHT22;58514;48.398;-4.274;2022-08-02T03:06:28;19.70;91.50
70269;DHT22;58514;48.398;-4.274;2022-08-02T03:08:54;19.70;91.40
70269;DHT22;58514;48.398;-4.274;2022-08-02T03:11:20;19.70;91.70
70269;DHT22;58514;48.398;-4.274;2022-08-02T03:13:45;19.60;91.80
70269;DHT22;58514;48.398;-4.274;2022-08-02T03:16:11;19.60;91.60
70269;DHT22;58514;48.398;-4.274;2022-08-02T03:18:38;19.70;91.70
70269;DHT22;58514;48.398;-4.274;2022-08-02T03:21:06;19.60;91.70
70269;DHT22;58514;48.398;-4.274;2022-08-02T03:23:32;19.70;91.60
70269;DHT22;58514;48.398;-4.274;2022-08-02T03:25:57;19.70;92.00
70269;DHT22;58514;48.398;-4.274;2022-08-02T03:28:23;19.70;91.60
70269;DHT22;58514;48.398;-4.274;2022-08-02T03:30:49;19.70;92.00
70269;DHT22;58514;48.398;-4.274;2022-08-02T03:33:14;19.60;91.80
70269;DHT22;58514;48.398;-4.274;2022-08-02T03:35:40;19.60;91.90
70269;DHT22;58514;48.398;-4.274;2022-08-02T03:38:07;19.60;91.90
70269;DHT22;58514;48.398;-4.274;2022-08-02T03:40:33;19.60;91.80
70269;DHT22;58514;48.398;-4.274;2022-08-02T03:43:00;19.60;92.20
70269;DHT22;58514;48.398;-4.274;2022-08-02T03:45:26;19.60;92.00
70269;DHT22;58514;48.398;-4.274;2022-08-02T03:47:52;19.60;92.00
70269;DHT22;58514;48.398;-4.274;2022-08-02T03:50:18;19.60;92.00
70269;DHT22;58514;48.398;-4.274;2022-08-02T03:52:44;19.60;92.80
70269;DHT22;58514;48.398;-4.274;2022-08-02T03:55:10;19.60;92.10
70269;DHT22;58514;48.398;-4.274;2022-08-02T03:57:39;19.60;92.10
70269;DHT22;58514;48.398;-4.274;2022-08-02T04:00:07;19.70;92.40
70269;DHT22;58514;48.398;-4.274;2022-08-02T04:02:34;19.70;92.10
70269;DHT22;58514;48.398;-4.274;2022-08-02T04:04:59;19.70;92.20
70269;DHT22;58514;48.398;-4.274;2022-08-02T04:07:25;19.60;92.00
70269;DHT22;58514;48.398;-4.274;2022-08-02T04:09:50;19.60;92.30
70269;DHT22;58514;48.398;-4.274;2022-08-02T04:12:16;19.50;92.00
70269;DHT22;58514;48.398;-4.274;2022-08-02T04:14:41;19.40;92.30
70269;DHT22;58514;48.398;-4.274;2022-08-02T04:17:08;19.40;92.80
70269;DHT22;58514;48.398;-4.274;2022-08-02T04:19:44;19.40;92.40
70269;DHT22;58514;48.398;-4.274;2022-08-02T04:22:13;19.40;92.80
70269;DHT22;58514;48.398;-4.274;2022-08-02T04:24:42;19.40;92.50
70269;DHT22;58514;48.398;-4.274;2022-08-02T04:27:09;19.40;92.50
70269;DHT22;58514;48.398;-4.274;2022-08-02T04:29:35;19.40;92.60
70269;DHT22;58514;48.398;-4.274;2022-08-02T04:32:01;19.40;93.10
70269;DHT22;58514;48.398;-4.274;2022-08-02T04:34:27;19.40;93.00
70269;DHT22;58514;48.398;-4.274;2022-08-02T04:36:53;19.40;92.70
70269;DHT22;58514;48.398;-4.274;2022-08-02T04:39:19;19.40;92.90
70269;DHT22;58514;48.398;-4.274;2022-08-02T04:41:44;19.40;92.60
70269;DHT22;58514;48.398;-4.274;2022-08-02T04:44:13;19.40;92.70
70269;DHT22;58514;48.398;-4.274;2022-08-02T04:46:39;19.50;92.80
70269;DHT22;58514;48.398;-4.274;2022-08-02T04:49:05;19.40;92.80
70269;DHT22;58514;48.398;-4.274;2022-08-02T04:51:48;19.40;93.30
70269;DHT22;58514;48.398;-4.274;2022-08-02T04:54:14;19.40;92.90
70269;DHT22;58514;48.398;-4.274;2022-08-02T04:56:39;19.30;92.70
70269;DHT22;58514;48.398;-4.274;2022-08-02T04:59:05;19.40;92.90
70269;DHT22;58514;48.398;-4.274;2022-08-02T05:01:31;19.40;93.10
70269;DHT22;58514;48.398;-4.274;2022-08-02T05:03:56;19.40;93.00
70269;DHT22;58514;48.398;-4.274;2022-08-02T05:06:22;19.40;93.20
70269;DHT22;58514;48.398;-4.274;2022-08-02T05:08:48;19.40;93.00
70269;DHT22;58514;48.398;-4.274;2022-08-02T05:11:14;19.30;92.90
70269;DHT22;58514;48.398;-4.274;2022-08-02T05:13:40;19.30;92.90
70269;DHT22;58514;48.398;-4.274;2022-08-02T05:16:05;19.30;93.00
70269;DHT22;58514;48.398;-4.274;2022-08-02T05:18:31;19.30;93.10
70269;DHT22;58514;48.398;-4.274;2022-08-02T05:20:56;19.30;93.40
70269;DHT22;58514;48.398;-4.274;2022-08-02T05:23:22;19.30;93.00
70269;DHT22;58514;48.398;-4.274;2022-08-02T05:25:47;19.30;93.10
70269;DHT22;58514;48.398;-4.274;2022-08-02T05:28:13;19.30;93.20
70269;DHT22;58514;48.398;-4.274;2022-08-02T05:30:39;19.30;93.10
70269;DHT22;58514;48.398;-4.274;2022-08-02T05:33:04;19.30;93.20
70269;DHT22;58514;48.398;-4.274;2022-08-02T05:35:30;19.30;93.20
70269;DHT22;58514;48.398;-4.274;2022-08-02T05:37:56;19.40;93.20
70269;DHT22;58514;48.398;-4.274;2022-08-02T05:40:21;19.40;93.30
70269;DHT22;58514;48.398;-4.274;2022-08-02T05:42:47;19.30;93.30
70269;DHT22;58514;48.398;-4.274;2022-08-02T05:45:12;19.30;93.10
70269;DHT22;58514;48.398;-4.274;2022-08-02T05:47:38;19.30;93.20
70269;DHT22;58514;48.398;-4.274;2022-08-02T05:50:07;19.30;93.20
70269;DHT22;58514;48.398;-4.274;2022-08-02T06:05:13;19.40;93.70
70269;DHT22;58514;48.398;-4.274;2022-08-02T06:07:43;19.50;93.60
70269;DHT22;58514;48.398;-4.274;2022-08-02T06:10:09;19.50;93.90
70269;DHT22;58514;48.398;-4.274;2022-08-02T06:13:22;19.50;93.60
70269;DHT22;58514;48.398;-4.274;2022-08-02T06:15:25;19.50;93.80
70269;DHT22;58514;48.398;-4.274;2022-08-02T06:17:51;19.60;93.70
70269;DHT22;58514;48.398;-4.274;2022-08-02T06:20:17;19.60;93.60
70269;DHT22;58514;48.398;-4.274;2022-08-02T06:22:44;19.60;93.60
70269;DHT22;58514;48.398;-4.274;2022-08-02T06:25:11;19.60;93.60
70269;DHT22;58514;48.398;-4.274;2022-08-02T06:27:37;19.60;93.40
70269;DHT22;58514;48.398;-4.274;2022-08-02T06:30:03;19.70;93.60
70269;DHT22;58514;48.398;-4.274;2022-08-02T06:32:30;19.70;93.40
70269;DHT22;58514;48.398;-4.274;2022-08-02T06:34:56;19.70;93.50
70269;DHT22;58514;48.398;-4.274;2022-08-02T06:39:47;19.70;93.60
70269;DHT22;58514;48.398;-4.274;2022-08-02T06:42:15;19.70;93.80
70269;DHT22;58514;48.398;-4.274;2022-08-02T06:44:41;19.70;93.60
70269;DHT22;58514;48.398;-4.274;2022-08-02T06:47:07;19.70;93.40
70269;DHT22;58514;48.398;-4.274;2022-08-02T06:49:33;19.80;93.50
70269;DHT22;58514;48.398;-4.274;2022-08-02T06:51:58;19.80;93.50
70269;DHT22;58514;48.398;-4.274;2022-08-02T06:54:24;19.90;93.60
70269;DHT22;58514;48.398;-4.274;2022-08-02T06:56:49;19.90;93.90
70269;DHT22;58514;48.398;-4.274;2022-08-02T06:59:15;19.90;93.40
70269;DHT22;58514;48.398;-4.274;2022-08-02T07:01:41;20.00;93.40
70269;DHT22;58514;48.398;-4.274;2022-08-02T07:04:07;20.00;93.30
70269;DHT22;58514;48.398;-4.274;2022-08-02T07:06:33;20.00;93.10
70269;DHT22;58514;48.398;-4.274;2022-08-02T07:08:59;20.00;93.10
70269;DHT22;58514;48.398;-4.274;2022-08-02T07:11:25;20.10;93.40
70269;DHT22;58514;48.398;-4.274;2022-08-02T07:13:50;20.10;93.20
70269;DHT22;58514;48.398;-4.274;2022-08-02T07:16:16;20.10;93.30
70269;DHT22;58514;48.398;-4.274;2022-08-02T07:18:41;20.20;93.30
70269;DHT22;58514;48.398;-4.274;2022-08-02T07:21:07;20.20;93.20
70269;DHT22;58514;48.398;-4.274;2022-08-02T07:23:33;20.30;93.20
70269;DHT22;58514;48.398;-4.274;2022-08-02T07:25:59;20.20;93.30
70269;DHT22;58514;48.398;-4.274;2022-08-02T07:28:24;20.30;93.30
70269;DHT22;58514;48.398;-4.274;2022-08-02T07:30:50;20.20;93.00
70269;DHT22;58514;48.398;-4.274;2022-08-02T07:33:16;20.20;93.00
70269;DHT22;58514;48.398;-4.274;2022-08-02T07:35:41;20.20;93.00
70269;DHT22;58514;48.398;-4.274;2022-08-02T07:38:07;20.30;93.20
70269;DHT22;58514;48.398;-4.274;2022-08-02T07:40:32;20.30;93.20
70269;DHT22;58514;48.398;-4.274;2022-08-02T07:42:58;20.30;93.10
70269;DHT22;58514;48.398;-4.274;2022-08-02T07:45:24;20.30;92.90
70269;DHT22;58514;48.398;-4.274;2022-08-02T07:47:50;20.30;93.00
70269;DHT22;58514;48.398;-4.274;2022-08-02T07:50:16;20.30;93.10
70269;DHT22;58514;48.398;-4.274;2022-08-02T07:52:42;20.30;93.00
70269;DHT22;58514;48.398;-4.274;2022-08-02T07:55:09;20.40;93.00
70269;DHT22;58514;48.398;-4.274;2022-08-02T07:57:35;20.30;92.80
70269;DHT22;58514;48.398;-4.274;2022-08-02T08:00:01;20.30;93.10
70269;DHT22;58514;48.398;-4.274;2022-08-02T08:02:27;20.40;93.00
70269;DHT22;58514;48.398;-4.274;2022-08-02T08:04:52;20.40;93.00
70269;DHT22;58514;48.398;-4.274;2022-08-02T08:07:18;20.40;93.00
70269;DHT22;58514;48.398;-4.274;2022-08-02T08:09:44;20.40;93.10
70269;DHT22;58514;48.398;-4.274;2022-08-02T08:12:11;20.50;93.20
70269;DHT22;58514;48.398;-4.274;2022-08-02T08:14:37;20.60;92.90
70269;DHT22;58514;48.398;-4.274;2022-08-02T08:17:04;20.70;92.80
70269;DHT22;58514;48.398;-4.274;2022-08-02T08:19:29;20.70;92.80
70269;DHT22;58514;48.398;-4.274;2022-08-02T08:21:55;20.70;92.70
70269;DHT22;58514;48.398;-4.274;2022-08-02T08:24:20;20.80;92.70
70269;DHT22;58514;48.398;-4.274;2022-08-02T08:26:46;20.80;92.70
70269;DHT22;58514;48.398;-4.274;2022-08-02T08:29:11;20.80;92.70
70269;DHT22;58514;48.398;-4.274;2022-08-02T08:31:37;20.90;92.60
70269;DHT22;58514;48.398;-4.274;2022-08-02T08:34:03;20.90;92.80
70269;DHT22;58514;48.398;-4.274;2022-08-02T08:36:28;21.00;92.30
70269;DHT22;58514;48.398;-4.274;2022-08-02T08:38:55;21.00;92.40
70269;DHT22;58514;48.398;-4.274;2022-08-02T08:41:20;21.00;92.30
70269;DHT22;58514;48.398;-4.274;2022-08-02T08:43:46;21.00;92.50
70269;DHT22;58514;48.398;-4.274;2022-08-02T08:46:23;21.10;92.50
70269;DHT22;58514;48.398;-4.274;2022-08-02T08:48:50;21.20;92.30
70269;DHT22;58514;48.398;-4.274;2022-08-02T08:51:18;21.30;92.50
70269;DHT22;58514;48.398;-4.274;2022-08-02T08:53:46;21.40;92.30
70269;DHT22;58514;48.398;-4.274;2022-08-02T08:56:12;21.40;92.20
70269;DHT22;58514;48.398;-4.274;2022-08-02T08:58:38;21.50;92.10
70269;DHT22;58514;48.398;-4.274;2022-08-02T09:01:04;21.60;91.60
70269;DHT22;58514;48.398;-4.274;2022-08-02T09:03:29;21.60;91.40
70269;DHT22;58514;48.398;-4.274;2022-08-02T09:05:58;21.60;91.20
70269;DHT22;58514;48.398;-4.274;2022-08-02T09:08:24;21.60;91.40
70269;DHT22;58514;48.398;-4.274;2022-08-02T09:10:49;21.70;91.60
70269;DHT22;58514;48.398;-4.274;2022-08-02T09:13:19;21.70;91.30
70269;DHT22;58514;48.398;-4.274;2022-08-02T09:15:55;21.70;91.50
70269;DHT22;58514;48.398;-4.274;2022-08-02T09:18:43;21.80;91.30
70269;DHT22;58514;48.398;-4.274;2022-08-02T09:21:10;21.80;90.80
70269;DHT22;58514;48.398;-4.274;2022-08-02T09:23:43;21.70;90.80
70269;DHT22;58514;48.398;-4.274;2022-08-02T09:26:10;21.70;91.10
70269;DHT22;58514;48.398;-4.274;2022-08-02T09:28:36;21.70;91.00
70269;DHT22;58514;48.398;-4.274;2022-08-02T09:31:06;21.70;91.20
70269;DHT22;58514;48.398;-4.274;2022-08-02T09:33:33;21.70;91.20
70269;DHT22;58514;48.398;-4.274;2022-08-02T09:35:59;21.80;90.90
70269;DHT22;58514;48.398;-4.274;2022-08-02T09:38:25;21.80;90.90
70269;DHT22;58514;48.398;-4.274;2022-08-02T09:40:51;21.80;91.20
70269;DHT22;58514;48.398;-4.274;2022-08-02T09:43:16;21.80;90.80
70269;DHT22;58514;48.398;-4.274;2022-08-02T09:45:42;21.80;90.80
70269;DHT22;58514;48.398;-4.274;2022-08-02T09:48:08;21.80;90.80
70269;DHT22;58514;48.398;-4.274;2022-08-02T09:50:38;21.80;90.90
70269;DHT22;58514;48.398;-4.274;2022-08-02T09:53:04;21.80;90.90
70269;DHT22;58514;48.398;-4.274;2022-08-02T09:55:30;21.90;91.10
70269;DHT22;58514;48.398;-4.274;2022-08-02T09:57:56;21.90;91.00
70269;DHT22;58514;48.398;-4.274;2022-08-02T10:00:21;22.00;90.80
70269;DHT22;58514;48.398;-4.274;2022-08-02T10:03:09;22.00;90.70
70269;DHT22;58514;48.398;-4.274;2022-08-02T10:08:11;22.00;90.50
70269;DHT22;58514;48.398;-4.274;2022-08-02T10:10:37;22.10;90.70
70269;DHT22;58514;48.398;-4.274;2022-08-02T10:13:03;22.10;90.00
70269;DHT22;58514;48.398;-4.274;2022-08-02T10:15:29;22.00;90.00
70269;DHT22;58514;48.398;-4.274;2022-08-02T10:17:54;22.00;90.20
70269;DHT22;58514;48.398;-4.274;2022-08-02T10:20:20;22.00;90.40
70269;DHT22;58514;48.398;-4.274;2022-08-02T10:22:46;22.00;90.40
70269;DHT22;58514;48.398;-4.274;2022-08-02T10:25:12;22.00;90.10
70269;DHT22;58514;48.398;-4.274;2022-08-02T10:27:38;22.00;90.40
70269;DHT22;58514;48.398;-4.274;2022-08-02T10:30:03;22.00;90.40
70269;DHT22;58514;48.398;-4.274;2022-08-02T10:32:30;22.00;90.50
70269;DHT22;58514;48.398;-4.274;2022-08-02T10:35:31;22.10;90.20
70269;DHT22;58514;48.398;-4.274;2022-08-02T10:37:50;22.10;90.30
70269;DHT22;58514;48.398;-4.274;2022-08-02T10:40:17;22.10;90.00
70269;DHT22;58514;48.398;-4.274;2022-08-02T10:42:49;22.10;89.00
70269;DHT22;58514;48.398;-4.274;2022-08-02T10:45:16;22.10;90.10
70269;DHT22;58514;48.398;-4.274;2022-08-02T10:48:03;22.10;88.80
70269;DHT22;58514;48.398;-4.274;2022-08-02T10:51:10;22.20;89.70
70269;DHT22;58514;48.398;-4.274;2022-08-02T10:53:29;22.20;90.10
70269;DHT22;58514;48.398;-4.274;2022-08-02T10:55:57;22.30;90.50
70269;DHT22;58514;48.398;-4.274;2022-08-02T10:58:23;22.40;90.40
70269;DHT22;58514;48.398;-4.274;2022-08-02T11:00:51;22.50;90.60
70269;DHT22;58514;48.398;-4.274;2022-08-02T11:08:26;23.80;92.90
70269;DHT22;58514;48.398;-4.274;2022-08-02T11:10:52;24.20;90.30
70269;DHT22;58514;48.398;-4.274;2022-08-02T11:13:22;24.40;90.20
70269;DHT22;58514;48.398;-4.274;2022-08-02T11:15:51;24.80;92.80
70269;DHT22;58514;48.398;-4.274;2022-08-02T11:18:18;25.40;91.90
70269;DHT22;58514;48.398;-4.274;2022-08-02T11:20:44;26.00;86.80
70269;DHT22;58514;48.398;-4.274;2022-08-02T11:25:54;27.00;82.70
70269;DHT22;58514;48.398;-4.274;2022-08-02T11:28:20;27.50;86.70
70269;DHT22;58514;48.398;-4.274;2022-08-02T11:30:49;27.90;76.70
70269;DHT22;58514;48.398;-4.274;2022-08-02T11:33:20;28.30;81.60
70269;DHT22;58514;48.398;-4.274;2022-08-02T11:35:45;28.80;76.70
70269;DHT22;58514;48.398;-4.274;2022-08-02T11:38:12;29.10;75.70
70269;DHT22;58514;48.398;-4.274;2022-08-02T11:40:38;29.40;68.60
70269;DHT22;58514;48.398;-4.274;2022-08-02T11:43:04;29.60;64.20
70269;DHT22;58514;48.398;-4.274;2022-08-02T11:45:39;29.70;68.80
70269;DHT22;58514;48.398;-4.274;2022-08-02T11:48:05;30.00;63.40
70269;DHT22;58514;48.398;-4.274;2022-08-02T11:50:30;30.30;67.10
70269;DHT22;58514;48.398;-4.274;2022-08-02T11:52:56;30.80;66.60
70269;DHT22;58514;48.398;-4.274;2022-08-02T11:55:28;31.30;67.00
70269;DHT22;58514;48.398;-4.274;2022-08-02T11:58:01;31.70;63.10
70269;DHT22;58514;48.398;-4.274;2022-08-02T12:00:27;32.00;58.60
70269;DHT22;58514;48.398;-4.274;2022-08-02T12:02:53;32.30;59.00
70269;DHT22;58514;48.398;-4.274;2022-08-02T12:05:19;32.60;57.90
70269;DHT22;58514;48.398;-4.274;2022-08-02T12:07:46;32.90;57.80
70269;DHT22;58514;48.398;-4.274;2022-08-02T12:10:16;33.20;58.10
70269;DHT22;58514;48.398;-4.274;2022-08-02T12:17:54;33.90;53.90
70269;DHT22;58514;48.398;-4.274;2022-08-02T12:20:38;34.10;54.00
70269;DHT22;58514;48.398;-4.274;2022-08-02T12:23:04;34.20;52.50
70269;DHT22;58514;48.398;-4.274;2022-08-02T12:25:30;34.30;52.20
70269;DHT22;58514;48.398;-4.274;2022-08-02T12:30:53;34.60;51.80
70269;DHT22;58514;48.398;-4.274;2022-08-02T12:33:19;34.60;51.40
70269;DHT22;58514;48.398;-4.274;2022-08-02T12:35:45;34.70;50.20
70269;DHT22;58514;48.398;-4.274;2022-08-02T12:38:11;34.70;49.40
70269;DHT22;58514;48.398;-4.274;2022-08-02T12:40:37;34.80;49.70
70269;DHT22;58514;48.398;-4.274;2022-08-02T12:43:04;34.80;49.20
70269;DHT22;58514;48.398;-4.274;2022-08-02T12:45:31;34.80;47.70
70269;DHT22;58514;48.398;-4.274;2022-08-02T12:47:57;34.70;48.80
70269;DHT22;58514;48.398;-4.274;2022-08-02T12:50:25;34.80;48.00
70269;DHT22;58514;48.398;-4.274;2022-08-02T12:53:04;34.90;49.70
70269;DHT22;58514;48.398;-4.274;2022-08-02T12:55:30;34.80;48.00
70269;DHT22;58514;48.398;-4.274;2022-08-02T12:57:59;35.00;48.50
70269;DHT22;58514;48.398;-4.274;2022-08-02T13:00:29;35.00;45.70
70269;DHT22;58514;48.398;-4.274;2022-08-02T13:02:55;34.90;46.40
70269;DHT22;58514;48.398;-4.274;2022-08-02T13:05:21;34.80;46.70
70269;DHT22;58514;48.398;-4.274;2022-08-02T13:07:47;34.70;46.60
70269;DHT22;58514;48.398;-4.274;2022-08-02T13:10:12;34.80;47.10
70269;DHT22;58514;48.398;-4.274;2022-08-02T13:12:38;34.90;46.50
70269;DHT22;58514;48.398;-4.274;2022-08-02T13:15:05;35.00;46.60
70269;DHT22;58514;48.398;-4.274;2022-08-02T13:17:31;35.00;46.80
70269;DHT22;58514;48.398;-4.274;2022-08-02T13:19:57;35.10;47.00
70269;DHT22;58514;48.398;-4.274;2022-08-02T13:22:22;35.20;46.30
70269;DHT22;58514;48.398;-4.274;2022-08-02T13:24:48;35.30;44.70
70269;DHT22;58514;48.398;-4.274;2022-08-02T13:27:15;35.20;44.30
70269;DHT22;58514;48.398;-4.274;2022-08-02T13:29:41;35.20;45.40
70269;DHT22;58514;48.398;-4.274;2022-08-02T13:32:07;35.20;45.10
70269;DHT22;58514;48.398;-4.274;2022-08-02T13:34:33;35.20;45.90
70269;DHT22;58514;48.398;-4.274;2022-08-02T13:36:58;35.30;45.30
70269;DHT22;58514;48.398;-4.274;2022-08-02T13:39:24;35.40;44.10
70269;DHT22;58514;48.398;-4.274;2022-08-02T13:41:49;35.50;45.30
70269;DHT22;58514;48.398;-4.274;2022-08-02T13:44:15;35.20;40.70
70269;DHT22;58514;48.398;-4.274;2022-08-02T13:46:40;35.00;43.40
70269;DHT22;58514;48.398;-4.274;2022-08-02T13:49:06;34.90;44.70
70269;DHT22;58514;48.398;-4.274;2022-08-02T13:51:32;34.80;44.40
70269;DHT22;58514;48.398;-4.274;2022-08-02T13:53:57;34.80;45.00
70269;DHT22;58514;48.398;-4.274;2022-08-02T13:56:23;34.90;44.40
70269;DHT22;58514;48.398;-4.274;2022-08-02T13:58:48;34.70;43.00
70269;DHT22;58514;48.398;-4.274;2022-08-02T14:01:14;34.70;44.80
70269;DHT22;58514;48.398;-4.274;2022-08-02T14:03:39;34.60;44.20
70269;DHT22;58514;48.398;-4.274;2022-08-02T14:06:05;34.40;45.30
70269;DHT22;58514;48.398;-4.274;2022-08-02T14:08:31;34.20;45.20
70269;DHT22;58514;48.398;-4.274;2022-08-02T14:10:57;34.10;45.60
70269;DHT22;58514;48.398;-4.274;2022-08-02T14:13:22;34.00;46.10
70269;DHT22;58514;48.398;-4.274;2022-08-02T14:15:48;34.00;44.70
70269;DHT22;58514;48.398;-4.274;2022-08-02T14:18:14;33.80;45.70
70269;DHT22;58514;48.398;-4.274;2022-08-02T14:20:40;33.80;45.40
70269;DHT22;58514;48.398;-4.274;2022-08-02T14:23:05;33.70;45.80
70269;DHT22;58514;48.398;-4.274;2022-08-02T14:25:31;33.60;46.30
70269;DHT22;58514;48.398;-4.274;2022-08-02T14:27:57;33.40;45.40
70269;DHT22;58514;48.398;-4.274;2022-08-02T14:30:22;33.20;44.80
70269;DHT22;58514;48.398;-4.274;2022-08-02T14:32:48;33.10;45.70
70269;DHT22;58514;48.398;-4.274;2022-08-02T14:35:14;32.90;46.30
70269;DHT22;58514;48.398;-4.274;2022-08-02T14:37:39;32.90;46.70
70269;DHT22;58514;48.398;-4.274;2022-08-02T14:40:05;32.90;46.40
70269;DHT22;58514;48.398;-4.274;2022-08-02T14:42:31;32.90;46.40
70269;DHT22;58514;48.398;-4.274;2022-08-02T14:44:57;32.80;46.10
70269;DHT22;58514;48.398;-4.274;2022-08-02T14:47:22;32.80;46.50
70269;DHT22;58514;48.398;-4.274;2022-08-02T14:49:48;32.70;46.30
70269;DHT22;58514;48.398;-4.274;2022-08-02T14:52:13;32.60;46.50
70269;DHT22;58514;48.398;-4.274;2022-08-02T14:54:39;32.50;46.40
70269;DHT22;58514;48.398;-4.274;2022-08-02T14:57:07;32.50;46.50
70269;DHT22;58514;48.398;-4.274;2022-08-02T14:59:33;32.50;46.60
70269;DHT22;58514;48.398;-4.274;2022-08-02T15:01:59;32.30;46.00
70269;DHT22;58514;48.398;-4.274;2022-08-02T15:04:25;32.10;45.90
70269;DHT22;58514;48.398;-4.274;2022-08-02T15:06:51;32.00;46.70
70269;DHT22;58514;48.398;-4.274;2022-08-02T15:09:17;31.80;46.40
70269;DHT22;58514;48.398;-4.274;2022-08-02T15:11:43;31.70;46.50
70269;DHT22;58514;48.398;-4.274;2022-08-02T15:14:08;31.50;46.20
70269;DHT22;58514;48.398;-4.274;2022-08-02T15:16:34;31.50;46.90
70269;DHT22;58514;48.398;-4.274;2022-08-02T15:19:03;31.50;47.20
70269;DHT22;58514;48.398;-4.274;2022-08-02T15:21:29;31.40;47.10
70269;DHT22;58514;48.398;-4.274;2022-08-02T15:23:54;31.40;46.90
70269;DHT22;58514;48.398;-4.274;2022-08-02T15:26:20;31.40;47.20
70269;DHT22;58514;48.398;-4.274;2022-08-02T15:28:46;31.30;46.80
70269;DHT22;58514;48.398;-4.274;2022-08-02T15:31:12;31.20;46.30
70269;DHT22;58514;48.398;-4.274;2022-08-02T15:33:41;31.00;46.30
70269;DHT22;58514;48.398;-4.274;2022-08-02T15:36:08;30.90;46.70
70269;DHT22;58514;48.398;-4.274;2022-08-02T15:38:34;30.90;46.80
70269;DHT22;58514;48.398;-4.274;2022-08-02T15:41:00;30.80;46.80
70269;DHT22;58514;48.398;-4.274;2022-08-02T15:43:26;30.70;46.30
70269;DHT22;58514;48.398;-4.274;2022-08-02T15:45:52;30.50;46.40
70269;DHT22;58514;48.398;-4.274;2022-08-02T15:48:17;30.40;46.80
70269;DHT22;58514;48.398;-4.274;2022-08-02T15:50:43;30.30;46.60
70269;DHT22;58514;48.398;-4.274;2022-08-02T15:53:08;30.10;47.00
70269;DHT22;58514;48.398;-4.274;2022-08-02T15:55:34;30.10;47.40
70269;DHT22;58514;48.398;-4.274;2022-08-02T15:58:00;30.00;47.00
70269;DHT22;58514;48.398;-4.274;2022-08-02T16:00:25;29.90;47.10
70269;DHT22;58514;48.398;-4.274;2022-08-02T16:02:54;29.80;47.10